createdAt,value
2019-02-12T00:01:02.396Z,99357.88
2019-02-12T00:03:33.144Z,99363.77
2019-02-12T00:06:03.554Z,99368.56
2019-02-12T00:08:33.758Z,99379.70
2019-02-12T00:11:03.942Z,99383.59
2019-02-12T00:13:36.852Z,99386.09
2019-02-12T00:16:07.178Z,99380.06
2019-02-12T00:18:37.386Z,99389.67
2019-02-12T00:21:09.141Z,99384.70
2019-02-12T00:23:39.627Z,99390.11
2019-02-12T00:26:10.166Z,99407.46
2019-02-12T00:28:40.309Z,99405.90
2019-02-12T00:31:10.462Z,99405.07
2019-02-12T00:33:40.742Z,99398.66
2019-02-12T00:36:11.332Z,99400.31
2019-02-12T00:38:41.643Z,99403.95
2019-02-12T00:41:12.009Z,99397.42
2019-02-12T00:43:42.243Z,99390.77
2019-02-12T00:46:12.496Z,99395.47
2019-02-12T00:48:42.629Z,99395.53
2019-02-12T00:51:17.908Z,99406.87
2019-02-12T00:53:44.881Z,99416.20
2019-02-12T00:56:15.214Z,99425.96
2019-02-12T00:58:45.578Z,99415.13
2019-02-12T01:01:15.843Z,99410.22
2019-02-12T01:03:46.054Z,99429.27
2019-02-12T01:06:16.221Z,99428.12
2019-02-12T01:08:46.420Z,99420.39
2019-02-12T01:11:17.106Z,99431.56
2019-02-12T01:13:47.378Z,99429.95
2019-02-12T01:16:17.826Z,99438.28
2019-02-12T01:18:48.131Z,99444.39
2019-02-12T01:21:25.896Z,99457.45
2019-02-12T01:23:50.407Z,99461.11
2019-02-12T01:26:20.578Z,99472.23
2019-02-12T01:28:50.694Z,99464.03
2019-02-12T01:31:20.942Z,99473.95
2019-02-12T01:33:51.322Z,99469.92
2019-02-12T01:36:21.498Z,99468.63
2019-02-12T01:38:51.628Z,99471.30
2019-02-12T01:41:21.962Z,99469.46
2019-02-12T01:43:52.194Z,99472.98
2019-02-12T01:46:22.367Z,99475.47
2019-02-12T01:48:52.997Z,99470.62
2019-02-12T01:51:23.519Z,99470.66
2019-02-12T01:53:53.796Z,99471.51
2019-02-12T01:56:23.918Z,99473.55
2019-02-12T01:58:54.128Z,99473.05
2019-02-12T02:01:24.406Z,99470.09
2019-02-12T02:03:54.689Z,99472.22
2019-02-12T02:06:24.862Z,99469.79
2019-02-12T02:08:55.035Z,99465.53
2019-02-12T02:11:25.269Z,99463.34
2019-02-12T02:13:55.478Z,99466.19
2019-02-12T02:16:25.741Z,99466.05
2019-02-12T02:18:55.854Z,99472.57
2019-02-12T02:21:26.087Z,99466.92
2019-02-12T02:23:56.236Z,99471.30
2019-02-12T02:26:26.482Z,99467.02
2019-02-12T02:28:57.064Z,99471.70
2019-02-12T02:31:27.595Z,99478.89
2019-02-12T02:33:57.876Z,99475.16
2019-02-12T02:36:28.130Z,99476.78
2019-02-12T02:38:58.341Z,99475.19
2019-02-12T02:41:28.523Z,99487.78
2019-02-12T02:43:58.684Z,99491.56
2019-02-12T02:46:28.871Z,99498.33
2019-02-12T02:48:59.116Z,99499.57
2019-02-12T02:51:29.296Z,99509.03
2019-02-12T02:53:59.428Z,99517.88
2019-02-12T02:56:29.704Z,99512.68
2019-02-12T02:59:00.052Z,99526.06
2019-02-12T03:01:30.590Z,99526.09
2019-02-12T03:04:00.979Z,99531.16
2019-02-12T03:06:32.271Z,99531.19
2019-02-12T03:09:04.109Z,99537.66
2019-02-12T03:11:35.882Z,99541.18
2019-02-12T03:14:06.040Z,99541.27
2019-02-12T03:16:36.667Z,99542.01
2019-02-12T03:19:07.054Z,99552.23
2019-02-12T03:21:37.250Z,99547.03
2019-02-12T03:24:07.799Z,99535.17
2019-02-12T03:26:37.988Z,99535.29
2019-02-12T03:29:08.182Z,99540.73
2019-02-12T03:31:38.326Z,99543.18
2019-02-12T03:34:08.482Z,99549.02
2019-02-12T03:36:38.712Z,99561.73
2019-02-12T03:39:09.032Z,99565.21
2019-02-12T03:41:39.153Z,99571.66
2019-02-12T03:44:09.304Z,99570.23
2019-02-12T03:46:39.420Z,99570.77
2019-02-12T03:49:09.670Z,99571.28
2019-02-12T03:51:39.815Z,99581.92
2019-02-12T03:54:09.967Z,99582.16
2019-02-12T03:56:40.128Z,99580.17
2019-02-12T03:59:10.317Z,99580.00
2019-02-12T04:01:40.735Z,99584.27
2019-02-12T04:04:10.893Z,99585.83
2019-02-12T04:06:41.567Z,99587.16
2019-02-12T04:09:11.944Z,99586.06
2019-02-12T04:11:42.271Z,99583.69
2019-02-12T04:14:12.527Z,99584.52
2019-02-12T04:16:42.636Z,99574.17
2019-02-12T04:19:12.915Z,99580.71
2019-02-12T04:21:43.327Z,99574.85
2019-02-12T04:24:13.594Z,99577.34
2019-02-12T04:26:44.554Z,99587.06
2019-02-12T04:29:14.964Z,99582.48
2019-02-12T04:31:45.448Z,99585.25
2019-02-12T04:34:33.415Z,99581.97
2019-02-12T04:37:03.676Z,99590.88
2019-02-12T04:39:34.632Z,99586.28
2019-02-12T04:42:04.944Z,99597.55
2019-02-12T04:44:35.197Z,99598.70
2019-02-12T04:47:05.413Z,99594.39
2019-02-12T04:49:35.602Z,99586.81
2019-02-12T04:52:05.927Z,99590.88
2019-02-12T04:54:36.168Z,99585.55
2019-02-12T04:57:06.492Z,99592.73
2019-02-12T04:59:36.752Z,99590.58
2019-02-12T05:02:07.021Z,99581.26
2019-02-12T05:04:37.310Z,99583.83
2019-02-12T05:07:07.925Z,99572.17
2019-02-12T05:09:40.024Z,99572.17
2019-02-12T05:12:10.300Z,99576.07
2019-02-12T05:14:40.593Z,99579.13
2019-02-12T05:17:10.759Z,99578.50
2019-02-12T05:19:41.132Z,99582.88
2019-02-12T05:22:11.284Z,99584.54
2019-02-12T05:24:41.509Z,99584.54
2019-02-12T05:27:11.649Z,99584.87
2019-02-12T05:29:41.933Z,99586.20
2019-02-12T05:32:12.234Z,99579.00
2019-02-12T05:34:42.514Z,99585.48
2019-02-12T05:37:12.764Z,99584.45
2019-02-12T05:40:01.044Z,99585.56
2019-02-12T05:42:31.275Z,99584.45
2019-02-12T05:45:01.724Z,99580.88
2019-02-12T05:47:31.879Z,99581.64
2019-02-12T05:50:02.129Z,99586.23
2019-02-12T05:52:32.288Z,99589.49
2019-02-12T05:55:02.583Z,99595.64
2019-02-12T05:57:32.874Z,99597.69
2019-02-12T06:00:03.443Z,99602.27
2019-02-12T06:02:33.748Z,99609.08
2019-02-12T06:05:04.415Z,99618.19
2019-02-12T06:07:34.668Z,99619.73
2019-02-12T06:10:05.115Z,99618.10
2019-02-12T06:12:35.628Z,99624.52
2019-02-12T06:15:06.688Z,99624.22
2019-02-12T06:17:37.002Z,99621.67
2019-02-12T06:20:07.320Z,99624.05
2019-02-12T06:22:37.636Z,99619.94
2019-02-12T06:25:08.511Z,99618.87
2019-02-12T06:27:38.963Z,99623.37
2019-02-12T06:30:09.912Z,99621.33
2019-02-12T06:32:40.216Z,99628.60
2019-02-12T06:35:10.584Z,99626.44
2019-02-12T06:37:40.705Z,99631.89
2019-02-12T06:40:10.963Z,99638.75
2019-02-12T06:42:42.068Z,99633.13
2019-02-12T06:45:12.439Z,99637.95
2019-02-12T06:47:43.585Z,99638.36
2019-02-12T06:50:13.735Z,99635.73
2019-02-12T06:52:44.117Z,99637.69
2019-02-12T06:55:14.484Z,99637.27
2019-02-12T06:57:44.935Z,99639.78
2019-02-12T07:00:15.455Z,99641.94
2019-02-12T07:03:20.896Z,99643.69
2019-02-12T07:05:58.505Z,99642.98
2019-02-12T07:08:51.864Z,99648.66
2019-02-12T07:12:07.054Z,99645.20
2019-02-12T07:15:02.682Z,99646.46
2019-02-12T07:18:23.614Z,99646.19
2019-02-12T07:21:34.430Z,99650.98
2019-02-12T07:24:36.469Z,99652.45
2019-02-12T07:27:48.298Z,99658.31
2019-02-12T07:30:39.925Z,99659.25
2019-02-12T07:33:41.648Z,99667.59
2019-02-12T07:36:44.730Z,99672.94
2019-02-12T07:39:56.734Z,99681.84
2019-02-12T07:43:39.056Z,99684.35
2019-02-12T07:46:52.252Z,99698.82
2019-02-12T07:50:19.202Z,99698.72
2019-02-12T07:53:00.324Z,99703.35
2019-02-12T07:56:17.294Z,99705.53
2019-02-12T07:59:50.100Z,99715.18
2019-02-12T08:02:47.154Z,99713.56
2019-02-12T08:06:04.526Z,99720.13
2019-02-12T08:09:17.316Z,99728.45
2019-02-12T08:12:04.139Z,99736.03
2019-02-12T08:15:04.990Z,99733.95
2019-02-12T08:17:52.836Z,99738.54
2019-02-12T08:21:22.826Z,99740.28
2019-02-12T08:24:23.209Z,99736.36
2019-02-12T08:27:26.482Z,99742.37
2019-02-12T08:30:15.363Z,99754.05
2019-02-12T08:33:36.137Z,99743.53
2019-02-12T08:36:41.522Z,99746.23
2019-02-12T08:39:23.535Z,99748.95
2019-02-12T08:42:33.755Z,99747.11
2019-02-12T08:46:03.403Z,99745.48
2019-02-12T08:48:54.243Z,99754.81
2019-02-12T08:52:12.371Z,99760.41
2019-02-12T08:55:20.055Z,99759.09
2019-02-12T08:58:37.291Z,99761.61
2019-02-12T09:01:20.402Z,99766.16
2019-02-12T09:04:40.507Z,99767.62
2019-02-12T09:07:33.815Z,99776.30
2019-02-12T09:10:51.865Z,99776.67
2019-02-12T09:14:16.496Z,99776.48
2019-02-12T09:17:23.328Z,99784.41
2019-02-12T09:20:07.961Z,99774.56
2019-02-12T09:23:14.251Z,99781.25
2019-02-12T09:26:05.110Z,99775.59
2019-02-12T09:29:00.320Z,99780.06
2019-02-12T09:32:26.983Z,99791.34
2019-02-12T09:35:50.841Z,99787.17
2019-02-12T09:38:44.612Z,99786.00
2019-02-12T09:41:22.454Z,99786.53
2019-02-12T09:45:01.850Z,99788.00
2019-02-12T09:48:02.685Z,99794.55
2019-02-12T09:51:13.315Z,99797.17
2019-02-12T09:54:22.747Z,99799.31
2019-02-12T09:57:37.218Z,99791.94
2019-02-12T10:00:35.286Z,99795.60
2019-02-12T10:03:24.279Z,99801.13
2019-02-12T10:06:34.374Z,99805.76
2019-02-12T10:09:58.056Z,99797.88
2019-02-12T10:13:17.913Z,99806.73
2019-02-12T10:16:16.605Z,99815.03
2019-02-12T10:19:23.813Z,99817.56
2019-02-12T10:22:48.395Z,99823.29
2019-02-12T10:25:26.285Z,99819.03
2019-02-12T10:28:22.015Z,99815.09
2019-02-12T10:31:13.294Z,99817.67
2019-02-12T10:33:43.668Z,99823.27
2019-02-12T10:36:14.200Z,99825.39
2019-02-12T10:38:44.659Z,99832.58
2019-02-12T10:41:14.821Z,99829.99
2019-02-12T10:43:44.959Z,99829.63
2019-02-12T10:46:15.075Z,99827.36
2019-02-12T10:48:45.344Z,99830.70
2019-02-12T10:51:15.636Z,99831.89
2019-02-12T10:53:45.805Z,99835.09
2019-02-12T10:56:16.311Z,99848.19
2019-02-12T10:58:47.023Z,99842.48
2019-02-12T11:01:17.218Z,99842.22
2019-02-12T11:03:47.550Z,99834.56
2019-02-12T11:06:18.833Z,99830.86
2019-02-12T11:08:49.290Z,99833.05
2019-02-12T11:11:20.034Z,99831.44
2019-02-12T11:13:50.374Z,99826.02
2019-02-12T11:16:20.614Z,99829.98
2019-02-12T11:18:51.220Z,99822.80
2019-02-12T11:21:21.578Z,99821.02
2019-02-12T11:23:51.966Z,99822.98
2019-02-12T11:26:23.153Z,99824.84
2019-02-12T11:28:53.353Z,99816.44
2019-02-12T11:31:23.647Z,99819.56
2019-02-12T11:33:53.934Z,99809.93
2019-02-12T11:36:24.211Z,99820.84
2019-02-12T11:38:54.349Z,99819.53
2019-02-12T11:41:24.967Z,99811.48
2019-02-12T11:43:55.310Z,99818.89
2019-02-12T11:46:25.508Z,99815.73
2019-02-12T11:48:55.837Z,99818.55
2019-02-12T11:51:26.665Z,99826.89
2019-02-12T11:53:57.033Z,99826.39
2019-02-12T11:56:27.392Z,99828.84
2019-02-12T11:58:57.588Z,99826.91
2019-02-12T12:01:30.491Z,99821.64
2019-02-12T12:04:00.813Z,99828.67
2019-02-12T12:06:31.283Z,99828.91
2019-02-12T12:09:01.460Z,99830.48
2019-02-12T12:11:33.295Z,99831.05
2019-02-12T12:14:03.785Z,99835.95
2019-02-12T12:16:33.979Z,99829.67
2019-02-12T12:19:04.185Z,99833.08
2019-02-12T12:21:34.497Z,99840.17
2019-02-12T12:24:04.739Z,99828.09
2019-02-12T12:26:35.469Z,99826.03
2019-02-12T12:29:05.913Z,99829.20
2019-02-12T12:31:36.259Z,99832.87
2019-02-12T12:34:06.502Z,99825.35
2019-02-12T12:36:36.978Z,99830.19
2019-02-12T12:39:07.486Z,99833.81
2019-02-12T12:41:37.757Z,99833.94
2019-02-12T12:44:07.912Z,99837.41
2019-02-12T12:46:38.234Z,99842.06
2019-02-12T12:49:08.594Z,99835.94
2019-02-12T12:51:38.758Z,99836.08
2019-02-12T12:54:09.010Z,99837.85
2019-02-12T12:56:39.333Z,99837.67
2019-02-12T12:59:09.870Z,99841.36
2019-02-12T13:01:40.225Z,99836.38
2019-02-12T13:04:10.647Z,99841.78
2019-02-12T13:06:40.897Z,99839.13
2019-02-12T13:09:11.110Z,99838.75
2019-02-12T13:11:41.300Z,99844.79
2019-02-12T13:14:12.295Z,99843.09
2019-02-12T13:16:42.578Z,99838.02
2019-02-12T13:19:12.735Z,99832.88
2019-02-12T13:21:42.911Z,99834.79
2019-02-12T13:24:13.243Z,99834.68
2019-02-12T13:26:43.572Z,99838.52
2019-02-12T13:29:13.786Z,99845.20
2019-02-12T13:31:44.581Z,99837.33
2019-02-12T13:34:14.991Z,99843.98
2019-02-12T13:36:45.209Z,99837.31
2019-02-12T13:39:15.545Z,99843.33
2019-02-12T13:41:46.209Z,99842.36
2019-02-12T13:44:16.798Z,99843.23
2019-02-12T13:46:47.141Z,99837.38
2019-02-12T13:49:17.628Z,99835.39
2019-02-12T13:51:48.088Z,99833.59
2019-02-12T13:54:18.384Z,99832.11
2019-02-12T13:56:48.782Z,99843.44
2019-02-12T13:59:19.341Z,99843.91
2019-02-12T14:01:49.795Z,99834.19
2019-02-12T14:04:20.238Z,99836.80
2019-02-12T14:06:50.451Z,99828.45
2019-02-12T14:09:20.641Z,99830.56
2019-02-12T14:11:50.806Z,99830.51
2019-02-12T14:14:22.166Z,99824.89
2019-02-12T14:16:52.619Z,99838.16
2019-02-12T14:19:23.059Z,99840.77
2019-02-12T14:21:53.305Z,99843.73
2019-02-12T14:24:23.492Z,99838.79
2019-02-12T14:26:53.764Z,99844.83
2019-02-12T14:29:24.135Z,99849.96
2019-02-12T14:31:54.461Z,99852.92
2019-02-12T14:34:25.071Z,99853.38
2019-02-12T14:36:55.632Z,99857.08
2019-02-12T14:39:25.937Z,99857.04
2019-02-12T14:41:56.134Z,99858.91
2019-02-12T14:44:26.305Z,99859.34
2019-02-12T14:46:56.496Z,99860.19
2019-02-12T14:49:26.671Z,99862.81
2019-02-12T14:51:57.153Z,99856.78
2019-02-12T14:54:27.316Z,99863.79
2019-02-12T14:56:57.566Z,99865.58
2019-02-12T14:59:28.136Z,99871.66
2019-02-12T15:01:59.533Z,99863.55
2019-02-12T15:04:29.885Z,99857.75
2019-02-12T15:07:00.258Z,99855.49
2019-02-12T15:09:31.011Z,99854.34
2019-02-12T15:12:01.522Z,99851.59
2019-02-12T15:14:31.694Z,99859.53
2019-02-12T15:17:02.039Z,99853.15
2019-02-12T15:19:32.712Z,99853.10
2019-02-12T15:22:03.116Z,99852.62
2019-02-12T15:24:33.532Z,99852.16
2019-02-12T15:27:03.835Z,99849.02
2019-02-12T15:29:34.537Z,99845.83
2019-02-12T15:32:05.083Z,99850.23
2019-02-12T15:34:36.425Z,99849.47
2019-02-12T15:37:07.095Z,99841.42
2019-02-12T15:39:37.379Z,99842.25
2019-02-12T15:42:07.617Z,99841.28
2019-02-12T15:44:37.914Z,99848.14
2019-02-12T15:47:08.265Z,99848.66
2019-02-12T15:49:38.374Z,99855.11
2019-02-12T15:52:08.706Z,99851.83
2019-02-12T15:54:39.292Z,99851.69
2019-02-12T15:57:09.688Z,99848.45
2019-02-12T15:59:40.065Z,99846.80
2019-02-12T16:02:11.654Z,99849.95
2019-02-12T16:04:43.563Z,99848.94
2019-02-12T16:07:14.120Z,99848.40
2019-02-12T16:09:44.541Z,99853.20
2019-02-12T16:12:14.874Z,99852.02
2019-02-12T16:14:45.284Z,99858.42
2019-02-12T16:17:16.528Z,99865.94
2019-02-12T16:19:49.044Z,99860.28
2019-02-12T16:22:19.532Z,99869.07
2019-02-12T16:24:49.816Z,99871.87
2019-02-12T16:27:20.048Z,99884.28
2019-02-12T16:29:50.347Z,99883.53
2019-02-12T16:32:20.641Z,99884.33
2019-02-12T16:34:50.800Z,99887.75
2019-02-12T16:37:21.071Z,99892.66
2019-02-12T16:39:51.413Z,99894.91
2019-02-12T16:42:22.026Z,99894.83
2019-02-12T16:44:52.299Z,99897.34
2019-02-12T16:47:22.735Z,99896.05
2019-02-12T16:49:53.050Z,99901.39
2019-02-12T16:52:23.670Z,99899.16
2019-02-12T16:54:53.877Z,99894.83
2019-02-12T16:57:24.233Z,99896.73
2019-02-12T16:59:54.521Z,99898.67
2019-02-12T17:02:24.874Z,99902.51
2019-02-12T17:04:55.102Z,99910.51
2019-02-12T17:07:25.717Z,99912.95
2019-02-12T17:09:56.316Z,99917.02
2019-02-12T17:12:26.583Z,99924.64
2019-02-12T17:14:57.012Z,99932.30
2019-02-12T17:17:27.585Z,99940.14
2019-02-12T17:19:58.206Z,99945.95
2019-02-12T17:22:28.539Z,99948.44
2019-02-12T17:24:59.386Z,99950.70
2019-02-12T17:27:29.854Z,99954.72
2019-02-12T17:30:00.784Z,99953.92
2019-02-12T17:32:31.087Z,99957.75
2019-02-12T17:35:01.922Z,99961.29
2019-02-12T17:37:32.387Z,99965.84
2019-02-12T17:40:02.692Z,99972.75
2019-02-12T17:42:32.997Z,99977.08
2019-02-12T17:45:03.548Z,99977.73
2019-02-12T17:47:34.050Z,99974.09
2019-02-12T17:50:04.859Z,99976.69
2019-02-12T17:52:35.393Z,99971.47
2019-02-12T17:55:07.590Z,99971.25
2019-02-12T17:57:37.939Z,99975.59
2019-02-12T18:00:15.092Z,99988.63
2019-02-12T18:02:45.678Z,99979.99
2019-02-12T18:05:16.306Z,99985.00
2019-02-12T18:07:46.507Z,99979.86
2019-02-12T18:10:16.850Z,99984.80
2019-02-12T18:12:49.545Z,99987.95
2019-02-12T18:15:20.103Z,99995.63
2019-02-12T18:17:50.445Z,99988.73
2019-02-12T18:20:26.576Z,99991.56
2019-02-12T18:22:53.490Z,99984.57
2019-02-12T18:25:23.681Z,99990.16
2019-02-12T18:27:53.910Z,99987.16
2019-02-12T18:30:24.452Z,99987.42
2019-02-12T18:32:55.269Z,99993.77
2019-02-12T18:35:26.004Z,99999.28
2019-02-12T18:37:56.685Z,99997.91
2019-02-12T18:40:27.140Z,99998.96
2019-02-12T18:42:57.825Z,99995.00
2019-02-12T18:45:28.488Z,99992.59
2019-02-12T18:48:00.172Z,100002.08
2019-02-12T18:50:30.795Z,100002.66
2019-02-12T18:53:01.572Z,100003.49
2019-02-12T18:55:32.111Z,100008.85
2019-02-12T18:58:02.826Z,100013.50
2019-02-12T19:00:33.798Z,100005.25
2019-02-12T19:03:04.531Z,100003.53
2019-02-12T19:05:35.052Z,100020.86
2019-02-12T19:08:05.961Z,100013.94
2019-02-12T19:10:36.476Z,100018.00
2019-02-12T19:13:07.155Z,100023.10
2019-02-12T19:15:37.586Z,100022.77
2019-02-12T19:18:10.640Z,100018.50
2019-02-12T19:20:40.936Z,100019.07
2019-02-12T19:23:11.863Z,100023.77
2019-02-12T19:25:42.680Z,100021.59
2019-02-12T19:28:13.799Z,100022.22
2019-02-12T19:30:44.412Z,100025.98
2019-02-12T19:33:14.681Z,100031.47
2019-02-12T19:35:45.267Z,100035.22
2019-02-12T19:38:15.917Z,100036.47
2019-02-12T19:40:46.412Z,100032.42
2019-02-12T19:43:17.122Z,100037.55
2019-02-12T19:45:47.555Z,100030.63
2019-02-12T19:48:17.944Z,100032.84
2019-02-12T19:50:48.520Z,100033.89
2019-02-12T19:53:19.211Z,100033.55
2019-02-12T19:55:49.604Z,100036.60
2019-02-12T19:58:20.408Z,100034.99
2019-02-12T20:00:50.831Z,100050.16
2019-02-12T20:03:21.572Z,100058.78
2019-02-12T20:05:52.030Z,100060.86
2019-02-12T20:08:22.506Z,100061.89
2019-02-12T20:10:53.271Z,100049.78
2019-02-12T20:13:23.856Z,100054.16
2019-02-12T20:15:55.347Z,100064.50
2019-02-12T20:18:25.929Z,100072.44
2019-02-12T20:20:56.276Z,100077.66
2019-02-12T20:23:26.802Z,100076.12
2019-02-12T20:25:57.208Z,100073.58
2019-02-12T20:28:27.718Z,100076.86
2019-02-12T20:30:58.212Z,100066.91
2019-02-12T20:33:29.111Z,100059.62
2019-02-12T20:35:59.976Z,100063.66
2019-02-12T20:38:30.466Z,100059.62
2019-02-12T20:41:02.422Z,100064.34
2019-02-12T20:43:32.992Z,100061.34
2019-02-12T20:46:03.700Z,100054.30
2019-02-12T20:48:34.366Z,100047.08
2019-02-12T20:51:05.190Z,100052.44
2019-02-12T20:53:35.738Z,100056.67
2019-02-12T20:56:06.334Z,100051.36
2019-02-12T20:58:36.749Z,100044.91
2019-02-12T21:01:08.310Z,100039.19
2019-02-12T21:03:39.036Z,100047.02
2019-02-12T21:06:09.437Z,100038.41
2019-02-12T21:08:40.224Z,100039.40
2019-02-12T21:11:11.566Z,100053.76
2019-02-12T21:13:42.208Z,100054.19
2019-02-12T21:16:12.845Z,100054.58
2019-02-12T21:18:43.399Z,100069.95
2019-02-12T21:21:13.761Z,100074.31
2019-02-12T21:23:44.708Z,100074.63
2019-02-12T21:26:15.042Z,100078.95
2019-02-12T21:28:45.359Z,100074.63
2019-02-12T21:31:17.523Z,100068.33
2019-02-12T21:33:48.478Z,100068.13
2019-02-12T21:36:18.800Z,100066.80
2019-02-12T21:38:49.148Z,100083.88
2019-02-12T21:41:20.059Z,100079.52
2019-02-12T21:43:50.484Z,100076.86
2019-02-12T21:46:21.020Z,100081.00
2019-02-12T21:48:51.401Z,100082.48
2019-02-12T21:51:21.731Z,100086.42
2019-02-12T21:53:52.262Z,100086.23
2019-02-12T21:56:22.574Z,100084.36
2019-02-12T21:58:53.219Z,100087.33
2019-02-12T22:01:23.670Z,100084.92
2019-02-12T22:03:53.964Z,100086.86
2019-02-12T22:06:24.214Z,100082.18
2019-02-12T22:08:54.420Z,100080.55
2019-02-12T22:11:25.226Z,100087.15
2019-02-12T22:13:55.424Z,100089.80
2019-02-12T22:16:25.934Z,100095.23
2019-02-12T22:18:56.617Z,100102.02
2019-02-12T22:21:27.134Z,100099.86
2019-02-12T22:23:57.578Z,100096.75
2019-02-12T22:26:28.308Z,100091.59
2019-02-12T22:28:58.554Z,100083.45
2019-02-12T22:31:28.754Z,100084.73
2019-02-12T22:33:59.088Z,100085.34
2019-02-12T22:36:29.327Z,100088.68
2019-02-12T22:38:59.516Z,100086.75
2019-02-12T22:41:29.742Z,100083.35
2019-02-12T22:44:00.101Z,100082.56
2019-02-12T22:46:30.614Z,100078.59
2019-02-12T22:49:01.090Z,100085.61
2019-02-12T22:51:31.322Z,100091.50
2019-02-12T22:54:01.521Z,100093.06
2019-02-12T22:56:31.714Z,100087.48
2019-02-12T22:59:02.147Z,100078.45
2019-02-12T23:01:39.662Z,100083.46
2019-02-12T23:04:09.957Z,100084.33
2019-02-12T23:06:40.415Z,100075.45
2019-02-12T23:09:17.858Z,100080.45
2019-02-12T23:11:48.456Z,100076.50
2019-02-12T23:14:18.784Z,100076.19
2019-02-12T23:16:49.183Z,100062.73
2019-02-12T23:19:19.316Z,100062.61
2019-02-12T23:21:49.445Z,100056.52
2019-02-12T23:24:19.715Z,100060.72
2019-02-12T23:26:49.920Z,100056.77
2019-02-12T23:29:20.037Z,100048.47
2019-02-12T23:31:50.308Z,100056.77
2019-02-12T23:34:20.408Z,100057.44
2019-02-12T23:36:50.698Z,100047.84
2019-02-12T23:39:20.905Z,100035.22
2019-02-12T23:41:51.393Z,100035.22
2019-02-12T23:44:21.785Z,100035.93
2019-02-12T23:46:52.294Z,100035.18
2019-02-12T23:49:22.741Z,100046.62
2019-02-12T23:51:52.868Z,100043.16
2019-02-12T23:54:23.051Z,100040.34
2019-02-12T23:56:53.272Z,100042.19
2019-02-12T23:59:23.449Z,100056.98
